Terminal Aerodrome Forecast
Issued by NWS Spokane, WA

Home | Current Version | Previous Version | Text Only | Print | Product List | Glossary On
Versions: 1 2 3 4 5 6 7 8 9 10 11 12 13 14 15 16 17 18 19 20 21 22 23 24 25 26 27 28
000
FTUS46 KOTX 230520
TAFGEG
TAF
KGEG 230520Z 2306/2406 16015KT P6SM -RA BKN035 OVC060 WS020/23040KT
     FM231100 19014G20KT P6SM VCSH FEW010 BKN015 OVC030
     FM231900 20018G26KT P6SM VCSH FEW015 SCT030 BKN040
     FM240200 22015KT P6SM BKN050=

USA.gov is the U.S. government's official web portal to all federal, state and local government web resources and services.